createdAt,value
2022-11-30T00:01:51.530Z,5.61
2022-11-30T00:04:19.552Z,5.60
2022-11-30T00:06:48.788Z,5.62
2022-11-30T00:09:16.694Z,5.64
2022-11-30T00:11:44.637Z,5.64
2022-11-30T00:14:12.539Z,5.70
2022-11-30T00:16:41.065Z,5.74
2022-11-30T00:19:09.028Z,5.66
2022-11-30T00:21:37.409Z,5.70
2022-11-30T00:24:08.083Z,5.68
2022-11-30T00:26:36.546Z,5.65
2022-11-30T00:29:05.115Z,5.64
2022-11-30T00:31:33.495Z,5.57
2022-11-30T00:34:01.456Z,5.56
2022-11-30T00:36:29.539Z,5.53
2022-11-30T00:38:57.586Z,5.56
2022-11-30T00:41:26.950Z,5.49
2022-11-30T00:43:54.877Z,5.51
2022-11-30T00:46:22.724Z,5.52
2022-11-30T00:48:50.651Z,5.50
2022-11-30T00:51:20.340Z,5.49
2022-11-30T00:53:48.728Z,5.44
2022-11-30T00:56:16.999Z,5.45
2022-11-30T00:58:46.323Z,5.43
2022-11-30T01:01:14.321Z,5.39
2022-11-30T01:03:42.687Z,5.40
2022-11-30T01:06:11.713Z,5.40
2022-11-30T01:08:40.027Z,5.41
2022-11-30T01:11:10.459Z,5.41
2022-11-30T01:13:38.514Z,5.34
2022-11-30T01:16:12.603Z,5.37
2022-11-30T01:18:40.572Z,5.41
2022-11-30T01:21:11.089Z,5.39
2022-11-30T01:23:39.026Z,5.36
2022-11-30T01:26:07.567Z,5.37
2022-11-30T01:28:36.354Z,5.39
2022-11-30T01:31:06.178Z,5.42
2022-11-30T01:33:36.125Z,5.39
2022-11-30T01:36:06.564Z,5.39
2022-11-30T01:38:35.720Z,5.44
2022-11-30T01:41:04.735Z,5.46
2022-11-30T01:43:44.210Z,5.45
2022-11-30T01:46:33.449Z,5.51
2022-11-30T01:49:07.814Z,5.48
2022-11-30T01:51:37.285Z,5.42
2022-11-30T01:54:09.666Z,5.39
2022-11-30T01:56:42.833Z,5.38
2022-11-30T01:59:12.052Z,5.38
2022-11-30T02:01:40.081Z,5.29
2022-11-30T02:04:12.815Z,5.34
2022-11-30T02:06:40.981Z,5.29
2022-11-30T02:09:09.413Z,5.27
2022-11-30T02:11:37.434Z,5.28
2022-11-30T02:14:17.002Z,5.33
2022-11-30T02:16:56.739Z,5.36
2022-11-30T02:20:17.369Z,5.37
2022-11-30T02:22:59.335Z,5.41
2022-11-30T02:25:37.694Z,5.37
2022-11-30T02:28:44.650Z,5.38
2022-11-30T02:31:17.932Z,5.36
2022-11-30T02:33:48.653Z,5.36
2022-11-30T02:36:17.927Z,5.35
2022-11-30T02:38:45.977Z,5.33
2022-11-30T02:41:14.293Z,5.31
2022-11-30T02:43:43.664Z,5.33
2022-11-30T02:46:20.237Z,5.33
2022-11-30T02:48:54.391Z,5.31
2022-11-30T02:51:26.260Z,5.25
2022-11-30T02:53:55.638Z,5.20
2022-11-30T02:56:24.518Z,5.16
2022-11-30T02:58:53.881Z,5.17
2022-11-30T03:01:22.209Z,5.18
2022-11-30T03:03:50.227Z,5.17
2022-11-30T03:06:18.334Z,5.16
2022-11-30T03:08:46.168Z,5.20
2022-11-30T03:11:14.094Z,5.19
2022-11-30T03:13:42.172Z,5.15
2022-11-30T03:16:13.904Z,5.13
2022-11-30T03:18:42.268Z,5.11
2022-11-30T03:21:12.161Z,4.99
2022-11-30T03:23:41.127Z,5.12
2022-11-30T03:26:10.408Z,5.17
2022-11-30T03:28:38.580Z,5.22
2022-11-30T03:31:07.140Z,5.17
2022-11-30T03:33:36.582Z,5.17
2022-11-30T03:36:06.971Z,5.15
2022-11-30T03:38:35.270Z,5.24
2022-11-30T03:41:04.867Z,5.26
2022-11-30T03:43:32.697Z,5.29
2022-11-30T03:46:01.352Z,5.36
2022-11-30T03:48:29.441Z,5.36
2022-11-30T03:50:58.911Z,5.33
2022-11-30T03:53:27.021Z,5.33
2022-11-30T03:55:56.569Z,5.36
2022-11-30T03:58:25.775Z,5.37
2022-11-30T04:01:00.368Z,5.36
2022-11-30T04:03:28.013Z,5.35
2022-11-30T04:05:55.930Z,5.37
2022-11-30T04:08:25.296Z,5.37
2022-11-30T04:10:54.013Z,5.37
2022-11-30T04:13:23.113Z,5.40
2022-11-30T04:15:52.751Z,5.39
2022-11-30T04:18:22.158Z,5.37
2022-11-30T04:20:51.845Z,5.38
2022-11-30T04:23:20.618Z,5.35
2022-11-30T04:25:50.284Z,5.34
2022-11-30T04:28:19.284Z,5.36
2022-11-30T04:30:47.409Z,5.36
2022-11-30T04:33:17.494Z,5.39
2022-11-30T04:35:48.517Z,5.35
2022-11-30T04:38:16.715Z,5.30
2022-11-30T04:40:45.623Z,5.29
2022-11-30T04:43:15.321Z,5.31
2022-11-30T04:45:45.066Z,5.27
2022-11-30T04:48:13.079Z,5.33
2022-11-30T04:50:41.064Z,5.36
2022-11-30T04:53:09.648Z,5.38
2022-11-30T04:55:38.145Z,5.29
2022-11-30T04:58:05.931Z,5.30
2022-11-30T05:00:36.387Z,5.19
2022-11-30T05:03:04.920Z,5.22
2022-11-30T05:05:32.775Z,5.21
2022-11-30T05:08:01.080Z,5.19
2022-11-30T05:10:30.545Z,5.20
2022-11-30T05:12:58.651Z,5.19
2022-11-30T05:15:27.338Z,5.06
2022-11-30T05:17:59.832Z,5.14
2022-11-30T05:20:27.810Z,5.23
2022-11-30T05:22:55.827Z,5.23
2022-11-30T05:25:23.788Z,5.25
2022-11-30T05:27:51.691Z,5.25
2022-11-30T05:30:20.025Z,5.19
2022-11-30T05:32:48.275Z,5.20
2022-11-30T05:35:18.062Z,5.16
2022-11-30T05:37:46.569Z,5.18
2022-11-30T05:40:17.982Z,5.18
2022-11-30T05:42:45.898Z,5.17
2022-11-30T05:45:13.762Z,5.18
2022-11-30T05:47:43.275Z,5.24
2022-11-30T05:50:11.272Z,5.22
2022-11-30T05:52:40.509Z,5.22
2022-11-30T05:55:08.996Z,5.21
2022-11-30T05:57:37.649Z,5.24
2022-11-30T06:00:06.669Z,5.13
2022-11-30T06:02:39.521Z,5.22
2022-11-30T06:05:08.433Z,5.23
2022-11-30T06:07:38.474Z,5.30
2022-11-30T06:10:09.163Z,5.22
2022-11-30T06:12:36.904Z,5.34
2022-11-30T06:15:05.478Z,5.35
2022-11-30T06:17:33.430Z,5.35
2022-11-30T06:20:01.429Z,5.35
2022-11-30T06:22:29.473Z,5.38
2022-11-30T06:24:57.264Z,5.41
2022-11-30T06:27:26.677Z,5.40
2022-11-30T06:29:54.891Z,5.36
2022-11-30T06:32:22.761Z,5.28
2022-11-30T06:34:50.482Z,5.31
2022-11-30T06:37:18.326Z,5.27
2022-11-30T06:42:37.408Z,5.28
2022-11-30T06:45:07.084Z,5.31
2022-11-30T06:47:34.976Z,5.33
2022-11-30T06:50:03.224Z,5.34
2022-11-30T06:52:31.628Z,5.33
2022-11-30T06:54:59.623Z,5.32
2022-11-30T06:57:28.473Z,5.29
2022-11-30T06:59:58.121Z,5.31
2022-11-30T07:02:26.061Z,5.32
2022-11-30T07:04:54.093Z,5.32
2022-11-30T07:07:22.200Z,5.31
2022-11-30T07:09:50.810Z,5.27
2022-11-30T07:12:18.820Z,5.25
2022-11-30T07:14:47.070Z,5.33
2022-11-30T07:17:16.458Z,5.28
2022-11-30T07:19:44.235Z,5.41
2022-11-30T07:22:12.020Z,5.40
2022-11-30T07:24:57.194Z,5.39
2022-11-30T07:27:25.451Z,5.37
2022-11-30T07:29:53.717Z,5.38
2022-11-30T07:32:23.060Z,5.37
2022-11-30T07:34:50.973Z,5.39
2022-11-30T07:37:19.459Z,5.40
2022-11-30T07:39:47.411Z,5.38
2022-11-30T07:42:16.987Z,5.37
2022-11-30T07:44:45.080Z,5.37
2022-11-30T07:47:13.139Z,5.34
2022-11-30T07:49:42.281Z,5.32
2022-11-30T07:52:10.129Z,5.28
2022-11-30T07:54:37.880Z,5.23
2022-11-30T07:57:06.413Z,5.20
2022-11-30T07:59:34.359Z,5.19
2022-11-30T08:02:02.324Z,5.22
2022-11-30T08:04:30.231Z,5.22
2022-11-30T08:06:59.422Z,5.21
2022-11-30T08:09:27.256Z,5.22
2022-11-30T08:11:55.068Z,5.23
2022-11-30T08:14:22.810Z,5.22
2022-11-30T08:16:51.858Z,5.27
2022-11-30T08:19:20.057Z,5.27
2022-11-30T08:21:47.914Z,5.31
2022-11-30T08:24:17.309Z,5.31
2022-11-30T08:26:45.463Z,5.31
2022-11-30T08:29:13.406Z,5.35
2022-11-30T08:31:41.179Z,5.34
2022-11-30T08:34:12.817Z,5.38
2022-11-30T08:36:41.729Z,5.41
2022-11-30T08:39:12.343Z,5.35
2022-11-30T08:41:41.587Z,5.42
2022-11-30T08:44:09.795Z,5.42
2022-11-30T08:46:53.915Z,5.44
2022-11-30T08:49:23.911Z,5.41
2022-11-30T08:54:45.523Z,5.51
2022-11-30T08:57:15.212Z,5.54
2022-11-30T08:59:43.043Z,5.54
2022-11-30T09:02:12.259Z,5.54
2022-11-30T09:04:40.365Z,5.53
2022-11-30T09:07:09.493Z,5.55
2022-11-30T09:09:37.767Z,5.58
2022-11-30T09:12:05.917Z,5.67
2022-11-30T09:14:35.393Z,5.64
2022-11-30T09:17:03.319Z,5.63
2022-11-30T09:19:31.270Z,5.74
2022-11-30T09:21:59.200Z,5.77
2022-11-30T09:24:26.933Z,5.83
2022-11-30T09:26:57.569Z,5.72
2022-11-30T09:29:25.485Z,5.77
2022-11-30T09:31:54.676Z,5.78
2022-11-30T09:34:22.729Z,5.76
2022-11-30T09:36:50.490Z,5.76
2022-11-30T09:39:18.279Z,5.79
2022-11-30T09:42:04.418Z,5.84
2022-11-30T09:44:45.161Z,5.82
2022-11-30T09:47:36.040Z,5.83
2022-11-30T09:50:11.639Z,5.86
2022-11-30T09:52:44.227Z,5.84
2022-11-30T09:55:18.685Z,5.83
2022-11-30T09:57:48.380Z,5.83
2022-11-30T10:00:19.132Z,5.86
2022-11-30T10:02:50.555Z,5.89
2022-11-30T10:05:21.597Z,5.89
2022-11-30T10:08:12.178Z,5.86
2022-11-30T10:10:42.081Z,5.92
2022-11-30T10:13:39.290Z,5.94
2022-11-30T10:16:18.201Z,5.92
2022-11-30T10:19:00.218Z,5.92
2022-11-30T10:21:40.968Z,5.95
2022-11-30T10:24:23.288Z,6.01
2022-11-30T10:26:55.614Z,5.91
2022-11-30T10:29:31.467Z,6.01
2022-11-30T10:32:01.213Z,6.04
2022-11-30T10:34:35.642Z,6.04
2022-11-30T10:37:11.106Z,6.00
2022-11-30T10:39:44.826Z,5.98
2022-11-30T10:42:17.422Z,5.96
2022-11-30T10:44:54.082Z,5.92
2022-11-30T10:47:27.178Z,5.93
2022-11-30T10:49:56.358Z,5.91
2022-11-30T10:52:27.285Z,5.87
2022-11-30T10:55:04.295Z,5.88
2022-11-30T10:57:34.114Z,5.89
2022-11-30T11:00:06.630Z,5.89
2022-11-30T11:02:41.618Z,5.89
2022-11-30T11:05:22.773Z,5.84
2022-11-30T11:07:55.233Z,5.79
2022-11-30T11:10:29.356Z,5.75
2022-11-30T11:12:57.727Z,5.75
2022-11-30T11:15:27.270Z,5.71
2022-11-30T11:18:12.532Z,5.76
2022-11-30T11:20:43.361Z,5.79
2022-11-30T11:23:23.755Z,5.79
2022-11-30T11:25:53.227Z,5.79
2022-11-30T11:28:22.961Z,5.80
2022-11-30T11:30:53.844Z,5.81
2022-11-30T11:33:24.512Z,5.87
2022-11-30T11:35:56.165Z,5.89
2022-11-30T11:38:28.253Z,5.82
2022-11-30T11:40:58.790Z,5.82
2022-11-30T11:43:29.214Z,5.82
2022-11-30T11:46:02.071Z,5.82
2022-11-30T11:48:39.310Z,5.84
2022-11-30T11:51:11.070Z,5.83
2022-11-30T11:53:50.050Z,5.74
2022-11-30T11:56:26.468Z,5.80
2022-11-30T11:58:59.775Z,5.82
2022-11-30T12:01:50.211Z,5.81
2022-11-30T12:04:33.112Z,5.86
2022-11-30T12:07:12.570Z,5.88
2022-11-30T12:09:55.359Z,5.91
2022-11-30T12:12:23.221Z,5.93
2022-11-30T12:14:51.090Z,5.98
2022-11-30T12:17:40.293Z,6.00
2022-11-30T12:20:23.660Z,6.00
2022-11-30T12:23:09.807Z,5.91
2022-11-30T12:25:41.829Z,6.06
2022-11-30T12:28:21.891Z,6.09
2022-11-30T12:31:04.712Z,6.10
2022-11-30T12:33:47.522Z,6.13
2022-11-30T12:36:25.577Z,6.07
2022-11-30T12:39:01.103Z,5.97
2022-11-30T12:41:37.499Z,6.00
2022-11-30T12:44:41.779Z,6.00
2022-11-30T12:47:26.714Z,5.96
2022-11-30T12:50:09.993Z,5.92
2022-11-30T12:52:49.599Z,5.88
2022-11-30T12:55:31.630Z,5.81
2022-11-30T12:58:09.079Z,5.85
2022-11-30T13:00:46.873Z,5.90
2022-11-30T13:03:42.644Z,5.94
2022-11-30T13:06:15.646Z,5.94
2022-11-30T13:08:58.149Z,5.90
2022-11-30T13:11:33.235Z,5.87
2022-11-30T13:14:01.967Z,5.87
2022-11-30T13:16:32.489Z,5.91
2022-11-30T13:19:09.439Z,5.95
2022-11-30T13:21:43.053Z,6.06
2022-11-30T13:24:17.619Z,6.03
2022-11-30T13:26:53.029Z,5.99
2022-11-30T13:29:37.054Z,5.97
2022-11-30T13:32:27.534Z,5.85
2022-11-30T13:35:46.429Z,5.84
2022-11-30T13:38:36.406Z,5.82
2022-11-30T13:41:07.118Z,5.78
2022-11-30T13:43:41.785Z,5.77
2022-11-30T13:46:16.619Z,5.78
2022-11-30T13:48:46.039Z,5.78
2022-11-30T13:51:15.046Z,5.78
2022-11-30T13:53:43.186Z,5.81
2022-11-30T13:56:35.387Z,5.72
2022-11-30T13:59:41.350Z,5.74
2022-11-30T14:02:59.128Z,5.75
2022-11-30T14:05:38.113Z,5.64
2022-11-30T14:08:32.634Z,5.77
2022-11-30T14:11:34.121Z,5.81
2022-11-30T14:14:38.447Z,5.83
2022-11-30T14:17:19.590Z,5.85
2022-11-30T14:19:51.803Z,5.83
2022-11-30T14:22:20.166Z,5.76
2022-11-30T14:24:49.905Z,5.53
2022-11-30T14:27:22.646Z,5.75
2022-11-30T14:29:53.769Z,5.77
2022-11-30T14:32:34.972Z,5.76
2022-11-30T14:35:09.317Z,5.72
2022-11-30T14:37:41.206Z,5.71
2022-11-30T14:40:11.962Z,5.72
2022-11-30T14:42:49.313Z,5.71
2022-11-30T14:45:20.924Z,5.72
2022-11-30T14:47:52.578Z,5.77
2022-11-30T14:50:24.281Z,5.78
2022-11-30T14:53:17.856Z,5.72
2022-11-30T14:55:51.728Z,5.70
2022-11-30T14:58:29.708Z,5.69
2022-11-30T15:00:59.412Z,5.63
2022-11-30T15:03:34.616Z,5.63
2022-11-30T15:06:06.837Z,5.63
2022-11-30T15:08:38.232Z,5.61
2022-11-30T15:11:08.383Z,5.59
2022-11-30T15:13:40.536Z,5.58
2022-11-30T15:16:17.751Z,5.59
2022-11-30T15:18:47.702Z,5.58
2022-11-30T15:21:19.953Z,5.54
2022-11-30T15:23:51.223Z,5.54
2022-11-30T15:26:23.785Z,5.46
2022-11-30T15:28:57.523Z,5.48
2022-11-30T15:31:26.924Z,5.46
2022-11-30T15:33:56.222Z,5.49
2022-11-30T15:36:32.841Z,5.50
2022-11-30T15:39:04.713Z,5.52
2022-11-30T15:41:34.386Z,5.51
2022-11-30T15:44:03.140Z,5.51
2022-11-30T15:46:34.840Z,5.43
2022-11-30T15:49:18.190Z,5.56
2022-11-30T15:51:54.507Z,5.52
2022-11-30T15:54:47.558Z,5.44
2022-11-30T15:57:15.937Z,5.40
2022-11-30T15:59:44.362Z,5.37
2022-11-30T16:02:27.892Z,5.38
2022-11-30T16:05:23.932Z,5.34
2022-11-30T16:07:55.470Z,5.23
2022-11-30T16:10:25.791Z,5.32
2022-11-30T16:12:55.553Z,5.37
2022-11-30T16:15:26.022Z,5.43
2022-11-30T16:17:57.032Z,5.41
2022-11-30T16:20:26.380Z,5.38
2022-11-30T16:22:54.241Z,5.41
2022-11-30T16:25:24.904Z,5.39
2022-11-30T16:27:53.238Z,5.35
2022-11-30T16:30:23.301Z,5.25
2022-11-30T16:32:51.644Z,5.27
2022-11-30T16:35:23.201Z,5.21
2022-11-30T16:37:53.022Z,5.29
2022-11-30T16:40:21.346Z,5.31
2022-11-30T16:42:50.644Z,5.35
2022-11-30T16:45:21.293Z,5.43
2022-11-30T16:47:49.361Z,5.41
2022-11-30T16:50:17.768Z,5.47
2022-11-30T16:52:46.086Z,5.41
2022-11-30T16:55:16.716Z,5.41
2022-11-30T16:57:45.634Z,5.43
2022-11-30T17:00:16.654Z,5.36
2022-11-30T17:02:49.608Z,5.35
2022-11-30T17:05:17.790Z,5.36
2022-11-30T17:07:45.734Z,5.36
2022-11-30T17:10:15.172Z,5.34
2022-11-30T17:12:43.054Z,5.32
2022-11-30T17:15:15.628Z,5.32
2022-11-30T17:17:43.782Z,5.31
2022-11-30T17:20:13.032Z,5.33
2022-11-30T17:22:41.244Z,5.33
2022-11-30T17:25:14.082Z,5.31
2022-11-30T17:27:43.634Z,5.28
2022-11-30T17:30:12.636Z,5.28
2022-11-30T17:32:40.587Z,5.28
2022-11-30T17:35:09.310Z,5.30
2022-11-30T17:37:37.231Z,5.30
2022-11-30T17:40:07.024Z,5.29
2022-11-30T17:42:35.370Z,5.31
2022-11-30T17:45:05.121Z,5.28
2022-11-30T17:47:33.133Z,5.31
2022-11-30T17:50:01.337Z,5.33
2022-11-30T17:52:29.179Z,5.31
2022-11-30T17:54:57.008Z,5.24
2022-11-30T17:57:24.868Z,5.22
2022-11-30T17:59:52.696Z,5.21
2022-11-30T18:02:21.946Z,5.16
2022-11-30T18:04:50.563Z,5.19
2022-11-30T18:07:20.039Z,5.19
2022-11-30T18:09:49.411Z,5.04
2022-11-30T18:12:17.264Z,5.20
2022-11-30T18:14:46.279Z,5.18
2022-11-30T18:17:14.492Z,5.13
2022-11-30T18:19:43.730Z,5.14
2022-11-30T18:22:11.518Z,5.16
2022-11-30T18:24:39.390Z,5.14
2022-11-30T18:27:07.188Z,5.10
2022-11-30T18:29:34.972Z,5.10
2022-11-30T18:32:02.837Z,5.09
2022-11-30T18:34:30.580Z,5.11
2022-11-30T18:37:04.101Z,5.11
2022-11-30T18:39:32.017Z,5.09
2022-11-30T18:41:59.865Z,5.08
2022-11-30T18:44:27.620Z,4.95
2022-11-30T18:46:55.455Z,5.06
2022-11-30T18:49:23.711Z,5.05
2022-11-30T18:51:51.517Z,5.06
2022-11-30T18:54:20.759Z,5.03
2022-11-30T18:56:48.493Z,5.05
2022-11-30T18:59:16.616Z,4.91
2022-11-30T19:01:44.472Z,5.03
2022-11-30T19:04:12.694Z,5.05
2022-11-30T19:06:42.718Z,5.09
2022-11-30T19:09:13.595Z,5.09
2022-11-30T19:11:44.055Z,5.08
2022-11-30T19:14:14.503Z,5.10
2022-11-30T19:16:42.748Z,5.13
2022-11-30T19:19:13.845Z,5.08
2022-11-30T19:21:43.714Z,5.10
2022-11-30T19:24:11.573Z,5.10
2022-11-30T19:26:40.158Z,5.12
2022-11-30T19:29:11.730Z,5.10
2022-11-30T19:31:39.679Z,5.12
2022-11-30T19:34:12.634Z,5.12
2022-11-30T19:36:41.633Z,5.10
2022-11-30T19:39:11.581Z,5.13
2022-11-30T19:41:39.367Z,5.17
2022-11-30T19:44:07.272Z,5.19
2022-11-30T19:46:36.557Z,5.20
2022-11-30T19:49:04.650Z,5.19
2022-11-30T19:51:32.828Z,5.18
2022-11-30T19:54:01.894Z,5.18
2022-11-30T19:56:31.210Z,5.16
2022-11-30T19:59:04.692Z,5.20
2022-11-30T20:01:34.053Z,5.16
2022-11-30T20:04:04.152Z,5.18
2022-11-30T20:06:35.692Z,5.20
2022-11-30T20:09:04.242Z,5.21
2022-11-30T20:11:32.735Z,5.09
2022-11-30T20:14:00.786Z,5.15
2022-11-30T20:16:29.361Z,5.12
2022-11-30T20:19:00.610Z,5.12
2022-11-30T20:21:32.228Z,5.14
2022-11-30T20:24:02.039Z,5.08
2022-11-30T20:26:31.696Z,5.02
2022-11-30T20:29:01.404Z,5.04
2022-11-30T20:31:30.248Z,5.02
2022-11-30T20:33:58.189Z,5.01
2022-11-30T20:36:26.122Z,5.02
2022-11-30T20:38:55.741Z,5.02
2022-11-30T20:41:25.522Z,5.02
2022-11-30T20:43:54.100Z,5.09
2022-11-30T20:46:23.686Z,5.09
2022-11-30T20:48:52.909Z,5.06
2022-11-30T20:51:30.862Z,5.07
2022-11-30T20:54:02.544Z,5.07
2022-11-30T20:56:30.393Z,5.14
2022-11-30T20:59:01.746Z,5.13
2022-11-30T21:01:29.814Z,5.12
2022-11-30T21:03:59.449Z,5.13
2022-11-30T21:06:27.543Z,5.14
2022-11-30T21:08:55.332Z,5.15
2022-11-30T21:11:24.763Z,5.15
2022-11-30T21:13:52.731Z,5.13
2022-11-30T21:16:27.649Z,5.14
2022-11-30T21:18:57.899Z,5.16
2022-11-30T21:21:27.331Z,5.12
2022-11-30T21:23:55.336Z,5.13
2022-11-30T21:26:26.466Z,5.10
2022-11-30T21:28:56.720Z,5.07
2022-11-30T21:31:24.813Z,5.06
2022-11-30T21:33:53.943Z,5.06
2022-11-30T21:36:23.561Z,5.05
2022-11-30T21:39:01.056Z,5.05
2022-11-30T21:41:34.642Z,5.05
2022-11-30T21:44:03.149Z,5.01
2022-11-30T21:46:31.165Z,4.96
2022-11-30T21:48:59.277Z,4.98
2022-11-30T21:51:29.042Z,4.97
2022-11-30T21:53:58.794Z,4.97
2022-11-30T21:56:28.543Z,4.97
2022-11-30T21:58:58.472Z,4.92
2022-11-30T22:01:29.145Z,5.05
2022-11-30T22:03:58.960Z,5.02
2022-11-30T22:06:29.746Z,4.98
2022-11-30T22:09:03.329Z,4.99
2022-11-30T22:11:32.095Z,5.02
2022-11-30T22:14:01.569Z,4.95
2022-11-30T22:16:35.665Z,4.99
2022-11-30T22:19:04.764Z,4.96
2022-11-30T22:21:33.348Z,4.95
2022-11-30T22:24:03.339Z,4.97
2022-11-30T22:26:32.398Z,5.00
2022-11-30T22:29:03.447Z,5.01
2022-11-30T22:31:33.403Z,5.03
2022-11-30T22:34:01.563Z,4.97
2022-11-30T22:36:30.927Z,4.99
2022-11-30T22:39:00.600Z,4.96
2022-11-30T22:41:29.569Z,4.98
2022-11-30T22:43:58.075Z,4.92
2022-11-30T22:46:29.100Z,4.96
2022-11-30T22:48:59.402Z,4.94
2022-11-30T22:51:29.345Z,5.05
2022-11-30T22:53:57.845Z,5.03
2022-11-30T22:56:28.558Z,4.96
2022-11-30T22:58:58.920Z,4.92
2022-11-30T23:01:30.449Z,4.85
2022-11-30T23:04:03.168Z,4.85
2022-11-30T23:06:31.109Z,4.83
2022-11-30T23:08:59.437Z,4.83
2022-11-30T23:11:28.270Z,4.79
2022-11-30T23:13:56.366Z,4.81
2022-11-30T23:16:24.316Z,4.81
2022-11-30T23:18:57.019Z,4.83
2022-11-30T23:21:26.749Z,4.64
2022-11-30T23:23:57.876Z,4.82
2022-11-30T23:26:27.956Z,4.80
2022-11-30T23:28:59.142Z,4.77
2022-11-30T23:31:33.751Z,4.76
2022-11-30T23:34:06.027Z,4.75
2022-11-30T23:36:34.628Z,4.73
2022-11-30T23:39:05.224Z,4.70
2022-11-30T23:41:34.067Z,4.70
2022-11-30T23:44:02.377Z,4.69
2022-11-30T23:46:30.307Z,4.65
2022-11-30T23:48:58.418Z,4.67
2022-11-30T23:51:28.112Z,4.67
2022-11-30T23:53:56.456Z,4.64
2022-11-30T23:56:24.821Z,4.63
2022-11-30T23:58:53.242Z,4.64
